createdAt,value
2016-08-13T00:00:19.450Z,0
2016-08-13T00:01:19.436Z,0
2016-08-13T00:02:19.409Z,0
2016-08-13T00:03:19.386Z,0
2016-08-13T00:04:19.371Z,0
2016-08-13T00:05:19.368Z,0
2016-08-13T00:06:19.335Z,0
2016-08-13T00:07:19.308Z,0
2016-08-13T00:08:19.286Z,0
2016-08-13T00:09:19.268Z,0
2016-08-13T00:10:19.249Z,0
2016-08-13T00:11:19.918Z,0
2016-08-13T00:12:19.203Z,0
2016-08-13T00:13:19.191Z,0
2016-08-13T00:14:19.167Z,0
2016-08-13T00:15:19.144Z,0
2016-08-13T00:16:19.131Z,0
2016-08-13T00:17:19.797Z,0
2016-08-13T00:18:19.094Z,0
2016-08-13T00:19:19.063Z,0
2016-08-13T00:20:19.043Z,0
2016-08-13T00:21:19.023Z,0
2016-08-13T00:22:19.007Z,0
2016-08-13T00:23:18.985Z,0
2016-08-13T00:24:18.961Z,0
2016-08-13T00:25:18.957Z,0
2016-08-13T00:26:18.922Z,0
2016-08-13T00:27:18.917Z,0
2016-08-13T00:28:18.888Z,0
2016-08-13T00:29:18.865Z,0
2016-08-13T00:30:18.845Z,0
2016-08-13T00:31:18.818Z,0
2016-08-13T00:32:18.800Z,0
2016-08-13T00:33:18.788Z,0
2016-08-13T00:34:18.774Z,0
2016-08-13T00:35:18.742Z,0
2016-08-13T00:36:18.726Z,0
2016-08-13T00:37:18.701Z,0
2016-08-13T00:38:18.692Z,0
2016-08-13T00:39:18.661Z,0
2016-08-13T00:40:18.647Z,0
2016-08-13T00:41:18.619Z,0
2016-08-13T00:42:19.293Z,0
2016-08-13T00:43:18.582Z,0
2016-08-13T00:44:18.562Z,0
2016-08-13T00:45:18.550Z,0
2016-08-13T00:46:18.522Z,0
2016-08-13T00:47:18.499Z,0
2016-08-13T00:48:18.483Z,0
2016-08-13T00:49:18.460Z,0
2016-08-13T00:50:18.439Z,0
2016-08-13T00:51:18.418Z,0
2016-08-13T00:52:18.400Z,0
2016-08-13T00:53:18.396Z,0
2016-08-13T00:54:18.356Z,0
2016-08-13T00:55:18.334Z,0
2016-08-13T00:56:18.324Z,0
2016-08-13T00:57:18.291Z,0
2016-08-13T00:58:18.274Z,0
2016-08-13T00:59:18.273Z,0
2016-08-13T01:00:18.237Z,0
2016-08-13T01:01:18.228Z,0
2016-08-13T01:02:18.202Z,0
2016-08-13T01:03:18.188Z,0
2016-08-13T01:04:18.152Z,0
2016-08-13T01:05:18.143Z,0
2016-08-13T01:06:18.113Z,0
2016-08-13T01:07:18.100Z,0
2016-08-13T01:08:18.072Z,0
2016-08-13T01:09:18.052Z,0
2016-08-13T01:10:18.036Z,0
2016-08-13T01:11:18.016Z,0
2016-08-13T01:12:18.000Z,0
2016-08-13T01:13:17.984Z,0
2016-08-13T01:14:17.962Z,0
2016-08-13T01:15:17.934Z,0
2016-08-13T01:16:18.619Z,0
2016-08-13T01:17:17.890Z,0
2016-08-13T01:18:17.875Z,0
2016-08-13T01:19:17.850Z,0
2016-08-13T01:20:17.833Z,0
2016-08-13T01:21:17.812Z,0
2016-08-13T01:22:17.803Z,0
2016-08-13T01:23:17.769Z,0
2016-08-13T01:24:17.754Z,0
2016-08-13T01:25:17.735Z,0
2016-08-13T01:26:17.715Z,0
2016-08-13T01:27:17.691Z,0
2016-08-13T01:28:17.684Z,0
2016-08-13T01:29:17.661Z,0
2016-08-13T01:30:17.630Z,0
2016-08-13T01:31:17.622Z,0
2016-08-13T01:32:17.603Z,0
2016-08-13T01:33:17.566Z,0
2016-08-13T01:34:17.556Z,0
2016-08-13T01:35:17.526Z,0
2016-08-13T01:36:17.506Z,0
2016-08-13T01:37:17.484Z,0
2016-08-13T01:38:17.472Z,0
2016-08-13T01:39:17.444Z,0
2016-08-13T01:40:17.426Z,0
2016-08-13T01:41:17.406Z,0
2016-08-13T01:42:17.388Z,0
2016-08-13T01:43:17.361Z,0
2016-08-13T01:44:17.344Z,0
2016-08-13T01:45:17.334Z,0
2016-08-13T01:46:17.303Z,0
2016-08-13T01:47:17.282Z,0
2016-08-13T01:48:17.261Z,0
2016-08-13T01:49:17.238Z,0
2016-08-13T01:50:17.222Z,0
2016-08-13T01:51:17.202Z,0
2016-08-13T01:52:17.178Z,0
2016-08-13T01:53:17.158Z,0
2016-08-13T01:54:17.138Z,0
2016-08-13T01:55:17.122Z,0
2016-08-13T01:56:17.102Z,0
2016-08-13T01:57:17.779Z,0
2016-08-13T01:58:17.060Z,0
2016-08-13T01:59:17.041Z,0
2016-08-13T02:00:17.032Z,0
2016-08-13T02:01:16.998Z,0
2016-08-13T02:02:16.983Z,0
2016-08-13T02:03:16.952Z,0
2016-08-13T02:04:16.934Z,0
2016-08-13T02:05:16.913Z,0
2016-08-13T02:06:16.907Z,0
2016-08-13T02:07:16.874Z,0
2016-08-13T02:08:16.848Z,0
2016-08-13T02:09:16.834Z,0
2016-08-13T02:10:17.721Z,0
2016-08-13T02:11:16.788Z,0
2016-08-13T02:12:16.778Z,0
2016-08-13T02:13:16.757Z,0
2016-08-13T02:14:16.733Z,0
2016-08-13T02:15:16.708Z,0
2016-08-13T02:16:16.695Z,0
2016-08-13T02:17:17.369Z,0
2016-08-13T02:18:16.645Z,0
2016-08-13T02:19:16.626Z,0
2016-08-13T02:20:16.610Z,0
2016-08-13T02:21:16.586Z,0
2016-08-13T02:22:16.561Z,0
2016-08-13T02:23:16.542Z,0
2016-08-13T02:24:16.519Z,0
2016-08-13T02:25:16.505Z,0
2016-08-13T02:26:16.483Z,0
2016-08-13T02:27:16.456Z,0
2016-08-13T02:28:16.441Z,0
2016-08-13T02:29:16.418Z,0
2016-08-13T02:30:16.395Z,0
2016-08-13T02:31:16.379Z,0
2016-08-13T02:32:16.354Z,0
2016-08-13T02:33:16.359Z,0
2016-08-13T02:34:16.310Z,0
2016-08-13T02:35:16.291Z,0
2016-08-13T02:36:16.278Z,0
2016-08-13T02:37:16.250Z,0
2016-08-13T02:38:16.239Z,0
2016-08-13T02:39:16.223Z,0
2016-08-13T02:40:16.188Z,0
2016-08-13T02:41:16.167Z,0
2016-08-13T02:42:16.150Z,0
2016-08-13T02:43:16.821Z,0
2016-08-13T02:44:16.106Z,0
2016-08-13T02:45:16.085Z,0
2016-08-13T02:46:16.067Z,0
2016-08-13T02:47:16.040Z,0
2016-08-13T02:48:16.022Z,0
2016-08-13T02:49:16.015Z,0
2016-08-13T02:50:15.980Z,0
2016-08-13T02:51:15.960Z,0
2016-08-13T02:52:15.939Z,0
2016-08-13T02:53:15.939Z,0
2016-08-13T02:54:15.909Z,0
2016-08-13T02:55:15.879Z,0
2016-08-13T02:56:16.549Z,0
2016-08-13T02:57:15.850Z,0
2016-08-13T02:58:15.825Z,0
2016-08-13T02:59:15.806Z,0
2016-08-13T03:00:15.783Z,0
2016-08-13T03:01:15.756Z,0
2016-08-13T03:02:15.739Z,0
2016-08-13T03:03:15.714Z,0
2016-08-13T03:04:15.714Z,0
2016-08-13T03:05:15.673Z,0
2016-08-13T03:06:15.661Z,0
2016-08-13T03:07:15.637Z,0
2016-08-13T03:08:15.615Z,0
2016-08-13T03:09:15.588Z,0
2016-08-13T03:10:15.567Z,0
2016-08-13T03:11:15.553Z,0
2016-08-13T03:12:15.522Z,0
2016-08-13T03:13:15.507Z,0
2016-08-13T03:14:15.491Z,0
2016-08-13T03:15:15.467Z,0
2016-08-13T03:16:15.446Z,0
2016-08-13T03:17:15.422Z,0
2016-08-13T03:18:15.402Z,0
2016-08-13T03:19:15.381Z,0
2016-08-13T03:20:15.360Z,0
2016-08-13T03:21:15.344Z,0
2016-08-13T03:22:15.317Z,0
2016-08-13T03:23:15.305Z,0
2016-08-13T03:24:15.282Z,0
2016-08-13T03:25:15.270Z,0
2016-08-13T03:26:15.247Z,0
2016-08-13T03:27:15.216Z,0
2016-08-13T03:28:15.201Z,0
2016-08-13T03:29:15.173Z,0
2016-08-13T03:30:15.160Z,0
2016-08-13T03:31:15.145Z,0
2016-08-13T03:32:15.111Z,0
2016-08-13T03:33:15.097Z,0
2016-08-13T03:34:15.093Z,0
2016-08-13T03:35:15.075Z,0
2016-08-13T03:36:15.032Z,0
2016-08-13T03:37:15.016Z,0
2016-08-13T03:38:14.991Z,0
2016-08-13T03:39:14.963Z,0
2016-08-13T03:40:14.948Z,0
2016-08-13T03:41:14.949Z,0
2016-08-13T03:42:15.619Z,0
2016-08-13T03:43:14.909Z,0
2016-08-13T03:44:14.882Z,0
2016-08-13T03:45:14.852Z,0
2016-08-13T03:46:14.826Z,0
2016-08-13T03:47:14.814Z,0
2016-08-13T03:48:14.798Z,0
2016-08-13T03:49:14.761Z,0
2016-08-13T03:50:14.752Z,0
2016-08-13T03:51:14.724Z,0
2016-08-13T03:52:14.699Z,0
2016-08-13T03:53:14.682Z,0
2016-08-13T03:54:14.668Z,0
2016-08-13T03:55:14.639Z,0
2016-08-13T03:56:14.640Z,0
2016-08-13T03:57:14.598Z,5
2016-08-13T03:58:14.583Z,5
2016-08-13T03:59:14.556Z,5
2016-08-13T04:00:14.549Z,5
2016-08-13T04:01:15.213Z,5
2016-08-13T04:02:14.496Z,5
2016-08-13T04:03:15.173Z,5
2016-08-13T04:04:14.454Z,10
2016-08-13T04:05:14.429Z,10
2016-08-13T04:06:14.412Z,10
2016-08-13T04:07:14.399Z,10
2016-08-13T04:08:14.370Z,15
2016-08-13T04:09:14.351Z,15
2016-08-13T04:10:14.336Z,15
2016-08-13T04:11:14.309Z,15
2016-08-13T04:12:14.288Z,20
2016-08-13T04:13:14.273Z,20
2016-08-13T04:14:14.247Z,20
2016-08-13T04:15:14.232Z,25
2016-08-13T04:16:14.205Z,25
2016-08-13T04:17:14.184Z,30
2016-08-13T04:18:14.169Z,30
2016-08-13T04:19:14.147Z,35
2016-08-13T04:20:14.123Z,35
2016-08-13T04:21:14.103Z,40
2016-08-13T04:22:14.084Z,40
2016-08-13T04:23:14.061Z,45
2016-08-13T04:24:14.039Z,45
2016-08-13T04:25:14.020Z,50
2016-08-13T04:26:13.997Z,50
2016-08-13T04:27:13.980Z,55
2016-08-13T04:28:13.962Z,55
2016-08-13T04:29:13.934Z,60
2016-08-13T04:30:14.619Z,65
2016-08-13T04:31:13.906Z,65
2016-08-13T04:32:13.880Z,70
2016-08-13T04:33:13.867Z,70
2016-08-13T04:34:13.848Z,75
2016-08-13T04:35:13.822Z,75
2016-08-13T04:36:13.801Z,80
2016-08-13T04:37:13.788Z,80
2016-08-13T04:38:13.755Z,85
2016-08-13T04:39:13.734Z,90
2016-08-13T04:40:13.716Z,90
2016-08-13T04:41:13.692Z,95
2016-08-13T04:42:13.679Z,95
2016-08-13T04:43:14.357Z,100
2016-08-13T04:44:13.633Z,100
2016-08-13T04:45:13.615Z,105
2016-08-13T04:46:13.596Z,110
2016-08-13T04:47:13.574Z,110
2016-08-13T04:48:13.553Z,110
2016-08-13T04:49:13.535Z,115
2016-08-13T04:50:13.511Z,115
2016-08-13T04:51:13.499Z,120
2016-08-13T04:52:13.478Z,120
2016-08-13T04:53:13.452Z,120
2016-08-13T04:54:13.439Z,120
2016-08-13T04:55:13.414Z,125
2016-08-13T04:56:13.390Z,125
2016-08-13T04:57:13.376Z,130
2016-08-13T04:58:13.353Z,130
2016-08-13T04:59:13.328Z,135
2016-08-13T05:00:13.309Z,140
2016-08-13T05:01:13.291Z,140
2016-08-13T05:02:13.269Z,145
2016-08-13T05:03:13.951Z,150
2016-08-13T05:04:13.230Z,155
2016-08-13T05:05:13.215Z,160
2016-08-13T05:06:13.203Z,165
2016-08-13T05:07:13.166Z,165
2016-08-13T05:08:13.165Z,170
2016-08-13T05:09:13.134Z,175
2016-08-13T05:10:13.107Z,175
2016-08-13T05:11:13.091Z,180
2016-08-13T05:12:13.068Z,180
2016-08-13T05:13:13.053Z,180
2016-08-13T05:14:13.030Z,185
2016-08-13T05:15:13.017Z,190
2016-08-13T05:16:12.985Z,195
2016-08-13T05:17:12.970Z,195
2016-08-13T05:18:12.958Z,200
2016-08-13T05:19:12.927Z,200
2016-08-13T05:20:12.909Z,205
2016-08-13T05:21:12.890Z,205
2016-08-13T05:22:12.878Z,210
2016-08-13T05:23:12.845Z,210
2016-08-13T05:24:12.843Z,215
2016-08-13T05:25:12.804Z,215
2016-08-13T05:26:12.788Z,220
2016-08-13T05:27:12.766Z,220
2016-08-13T05:28:12.757Z,225
2016-08-13T05:29:13.433Z,220
2016-08-13T05:30:12.709Z,225
2016-08-13T05:31:12.689Z,225
2016-08-13T05:32:12.665Z,230
2016-08-13T05:33:12.648Z,230
2016-08-13T05:34:13.105Z,235
2016-08-13T05:35:13.096Z,240
2016-08-13T05:36:13.134Z,245
2016-08-13T05:37:13.052Z,245
2016-08-13T05:38:13.028Z,250
2016-08-13T05:39:13.015Z,255
2016-08-13T05:40:12.995Z,260
2016-08-13T05:41:12.965Z,260
2016-08-13T05:42:12.957Z,265
2016-08-13T05:43:12.934Z,270
2016-08-13T05:44:12.927Z,275
2016-08-13T05:45:12.898Z,275
2016-08-13T05:46:12.872Z,280
2016-08-13T05:47:12.854Z,285
2016-08-13T05:48:12.845Z,290
2016-08-13T05:49:12.813Z,290
2016-08-13T05:50:12.528Z,295
2016-08-13T05:51:12.811Z,300
2016-08-13T05:52:12.746Z,300
2016-08-13T05:53:12.732Z,300
2016-08-13T05:54:12.734Z,300
2016-08-13T05:55:12.696Z,305
2016-08-13T05:56:12.194Z,305
2016-08-13T05:57:12.173Z,310
2016-08-13T05:58:12.148Z,310
2016-08-13T05:59:12.131Z,310
2016-08-13T06:00:12.113Z,315
2016-08-13T06:01:12.094Z,315
2016-08-13T06:02:12.074Z,385
2016-08-13T06:03:12.058Z,605
2016-08-13T06:04:12.033Z,800
2016-08-13T06:05:12.014Z,855
2016-08-13T06:06:12.701Z,870
2016-08-13T06:07:11.982Z,875
2016-08-13T06:08:11.961Z,865
2016-08-13T06:09:11.957Z,870
2016-08-13T06:10:11.941Z,895
2016-08-13T06:11:11.905Z,920
2016-08-13T06:12:11.890Z,900
2016-08-13T06:13:11.869Z,870
2016-08-13T06:14:11.853Z,920
2016-08-13T06:15:11.829Z,920
2016-08-13T06:16:11.811Z,935
2016-08-13T06:17:11.792Z,945
2016-08-13T06:18:11.775Z,950
2016-08-13T06:19:11.762Z,965
2016-08-13T06:20:11.745Z,955
2016-08-13T06:21:11.725Z,950
2016-08-13T06:22:12.404Z,965
2016-08-13T06:23:11.692Z,960
2016-08-13T06:24:11.686Z,970
2016-08-13T06:25:11.660Z,990
2016-08-13T06:26:11.654Z,945
2016-08-13T06:27:11.623Z,740
2016-08-13T06:28:11.606Z,480
2016-08-13T06:29:11.604Z,400
2016-08-13T06:30:11.568Z,400
2016-08-13T06:31:11.553Z,405
2016-08-13T06:32:11.555Z,500
2016-08-13T06:33:11.518Z,795
2016-08-13T06:34:11.499Z,1030
2016-08-13T06:35:11.488Z,1065
2016-08-13T06:36:11.471Z,1090
2016-08-13T06:37:11.449Z,1115
2016-08-13T06:38:11.436Z,1120
2016-08-13T06:39:11.422Z,1095
2016-08-13T06:40:11.400Z,1120
2016-08-13T06:41:11.388Z,1130
2016-08-13T06:42:11.365Z,1130
2016-08-13T06:43:11.359Z,1165
2016-08-13T06:44:11.341Z,1175
2016-08-13T06:45:11.325Z,1185
2016-08-13T06:46:11.304Z,1170
2016-08-13T06:47:11.287Z,1170
2016-08-13T06:48:11.285Z,1195
2016-08-13T06:49:11.253Z,1200
2016-08-13T06:50:11.244Z,1200
2016-08-13T06:51:11.225Z,1210
2016-08-13T06:52:11.206Z,1235
2016-08-13T06:53:11.200Z,1120
2016-08-13T06:54:11.188Z,1225
2016-08-13T06:55:11.159Z,1255
2016-08-13T06:56:11.151Z,1270
2016-08-13T06:57:11.134Z,1260
2016-08-13T06:58:11.122Z,1245
2016-08-13T06:59:11.102Z,1270
2016-08-13T07:00:11.093Z,1290
2016-08-13T07:01:11.072Z,1090
2016-08-13T07:02:11.061Z,785
2016-08-13T07:03:11.051Z,550
2016-08-13T07:04:11.033Z,530
2016-08-13T07:05:11.012Z,550
2016-08-13T07:06:10.996Z,560
2016-08-13T07:07:10.981Z,730
2016-08-13T07:08:10.968Z,1025
2016-08-13T07:09:10.958Z,1280
2016-08-13T07:10:10.936Z,1375
2016-08-13T07:11:10.920Z,1390
2016-08-13T07:12:10.910Z,1395
2016-08-13T07:13:10.895Z,1355
2016-08-13T07:14:10.876Z,1285
2016-08-13T07:15:10.875Z,1380
2016-08-13T07:16:10.849Z,1385
2016-08-13T07:17:10.837Z,1345
2016-08-13T07:18:10.821Z,1310
2016-08-13T07:19:10.814Z,1340
2016-08-13T07:20:10.795Z,1350
2016-08-13T07:21:10.779Z,1335
2016-08-13T07:22:10.759Z,1345
2016-08-13T07:23:10.753Z,1325
2016-08-13T07:24:10.745Z,1295
2016-08-13T07:25:10.729Z,1280
2016-08-13T07:26:10.706Z,1280
2016-08-13T07:27:10.696Z,1275
2016-08-13T07:28:10.668Z,1300
2016-08-13T07:29:10.659Z,1265
2016-08-13T07:30:10.653Z,1235
2016-08-13T07:31:10.638Z,1145
2016-08-13T07:32:10.617Z,1080
2016-08-13T07:33:10.609Z,1010
2016-08-13T07:34:10.588Z,960
2016-08-13T07:35:10.576Z,950
2016-08-13T07:36:10.583Z,905
2016-08-13T07:37:10.604Z,875
2016-08-13T07:38:10.545Z,865
2016-08-13T07:39:10.526Z,885
2016-08-13T07:40:10.514Z,920
2016-08-13T07:41:10.505Z,1080
2016-08-13T07:42:10.483Z,1355
2016-08-13T07:43:10.476Z,1155
2016-08-13T07:44:10.578Z,1340
2016-08-13T07:45:10.453Z,1320
2016-08-13T07:46:10.433Z,1245
2016-08-13T07:47:10.684Z,1340
2016-08-13T07:48:10.652Z,1295
2016-08-13T07:49:10.520Z,1275
2016-08-13T07:50:10.432Z,1150
2016-08-13T07:51:10.366Z,905
2016-08-13T07:52:10.350Z,1395
2016-08-13T07:53:10.334Z,1870
2016-08-13T07:54:10.327Z,1810
2016-08-13T07:55:10.307Z,1805
2016-08-13T07:56:10.298Z,1840
2016-08-13T07:57:10.294Z,1885
2016-08-13T07:58:10.271Z,1790
2016-08-13T07:59:10.265Z,1825
2016-08-13T08:00:10.254Z,1800
2016-08-13T08:01:10.231Z,1715
2016-08-13T08:02:10.220Z,1865
2016-08-13T08:03:10.212Z,1860
2016-08-13T08:04:10.196Z,1785
2016-08-13T08:05:10.180Z,1840
2016-08-13T08:06:10.170Z,1715
2016-08-13T08:07:10.166Z,1835
2016-08-13T08:08:10.147Z,1720
2016-08-13T08:09:10.149Z,1830
2016-08-13T08:10:10.128Z,1895
2016-08-13T08:11:10.262Z,1935
2016-08-13T08:12:10.099Z,1955
2016-08-13T08:13:10.092Z,2020
2016-08-13T08:14:10.083Z,1925
2016-08-13T08:15:10.079Z,1975
2016-08-13T08:16:10.056Z,1975
2016-08-13T08:17:10.045Z,1980
2016-08-13T08:18:10.036Z,1965
2016-08-13T08:19:10.026Z,1880
2016-08-13T08:20:10.016Z,1965
2016-08-13T08:21:10.011Z,1790
2016-08-13T08:22:10.007Z,1825
2016-08-13T08:23:09.993Z,1875
2016-08-13T08:24:09.979Z,1960
2016-08-13T08:25:10.653Z,1855
2016-08-13T08:26:09.962Z,2010
2016-08-13T08:27:09.946Z,1925
2016-08-13T08:28:09.933Z,2040
2016-08-13T08:29:10.621Z,1975
2016-08-13T08:30:09.920Z,1940
2016-08-13T08:31:09.903Z,1925
2016-08-13T08:32:09.904Z,1745
2016-08-13T08:33:09.884Z,1945
2016-08-13T08:34:09.883Z,1940
2016-08-13T08:35:09.871Z,2065
2016-08-13T08:36:09.860Z,2050
2016-08-13T08:37:09.857Z,1880
2016-08-13T08:38:09.852Z,1850
2016-08-13T08:39:09.829Z,1665
2016-08-13T08:40:09.843Z,1855
2016-08-13T08:41:09.818Z,1950
2016-08-13T08:42:09.798Z,2020
2016-08-13T08:43:09.793Z,1860
2016-08-13T08:44:09.788Z,1915
2016-08-13T08:45:09.773Z,1620
2016-08-13T08:46:09.796Z,1550
2016-08-13T08:47:09.760Z,1525
2016-08-13T08:48:09.742Z,1450
2016-08-13T08:49:09.735Z,1545
2016-08-13T08:50:11.309Z,1450
2016-08-13T08:51:09.729Z,1360
2016-08-13T08:52:09.708Z,1455
2016-08-13T08:53:09.697Z,1375
2016-08-13T08:54:09.684Z,1270
2016-08-13T08:55:09.677Z,1180
2016-08-13T08:56:09.668Z,1185
2016-08-13T08:57:10.350Z,1150
2016-08-13T08:58:09.650Z,1085
2016-08-13T08:59:09.634Z,1060
2016-08-13T09:00:09.619Z,1055
2016-08-13T09:01:10.302Z,1125
2016-08-13T09:02:09.615Z,1150
2016-08-13T09:03:09.582Z,1215
2016-08-13T09:04:09.579Z,1200
2016-08-13T09:05:09.566Z,1380
2016-08-13T09:06:09.552Z,1670
2016-08-13T09:07:09.543Z,1740
2016-08-13T09:08:09.534Z,2115
2016-08-13T09:09:09.513Z,2345
2016-08-13T09:10:09.504Z,2415
2016-08-13T09:11:09.494Z,2135
2016-08-13T09:12:09.480Z,1630
2016-08-13T09:13:09.473Z,1280
2016-08-13T09:14:09.462Z,1125
2016-08-13T09:15:09.460Z,1880
2016-08-13T09:16:09.441Z,1610
2016-08-13T09:17:09.438Z,1750
2016-08-13T09:18:09.416Z,1940
2016-08-13T09:19:09.406Z,2655
2016-08-13T09:20:09.397Z,1825
2016-08-13T09:21:10.081Z,2130
2016-08-13T09:22:10.075Z,2415
2016-08-13T09:23:09.365Z,1430
2016-08-13T09:24:09.349Z,1345
2016-08-13T09:25:09.342Z,1850
2016-08-13T09:26:09.333Z,1225
2016-08-13T09:27:09.324Z,1580
2016-08-13T09:28:09.312Z,2420
2016-08-13T09:29:09.307Z,1330
2016-08-13T09:30:09.299Z,1305
2016-08-13T09:31:09.286Z,935
2016-08-13T09:32:09.276Z,925
2016-08-13T09:33:09.262Z,925
2016-08-13T09:34:09.267Z,1010
2016-08-13T09:35:09.240Z,2045
2016-08-13T09:36:09.235Z,1485
2016-08-13T09:37:09.224Z,1345
2016-08-13T09:38:09.218Z,3350
2016-08-13T09:39:09.212Z,1335
2016-08-13T09:40:09.186Z,1075
2016-08-13T09:41:09.179Z,2175
2016-08-13T09:42:09.250Z,935
2016-08-13T09:43:09.162Z,1415
2016-08-13T09:44:09.145Z,800
2016-08-13T09:45:09.138Z,875
2016-08-13T09:46:09.119Z,1955
2016-08-13T09:47:09.348Z,1620
2016-08-13T09:48:09.217Z,1240
2016-08-13T09:49:09.098Z,2460
2016-08-13T09:50:09.223Z,1305
2016-08-13T09:51:09.077Z,1295
2016-08-13T09:52:09.056Z,2725
2016-08-13T09:53:09.044Z,1340
2016-08-13T09:54:09.043Z,2600
2016-08-13T09:55:09.023Z,945
2016-08-13T09:56:09.011Z,1150
2016-08-13T09:57:09.011Z,2645
2016-08-13T09:58:08.991Z,2075
2016-08-13T09:59:08.986Z,1040
2016-08-13T10:00:08.972Z,1105
2016-08-13T10:01:08.957Z,1235
2016-08-13T10:02:08.949Z,905
2016-08-13T10:03:08.936Z,2460
2016-08-13T10:04:08.936Z,1495
2016-08-13T10:05:08.906Z,1105
2016-08-13T10:06:08.903Z,1455
2016-08-13T10:07:08.891Z,2065
2016-08-13T10:08:08.884Z,1845
2016-08-13T10:09:08.866Z,1175
2016-08-13T10:10:08.860Z,1335
2016-08-13T10:11:09.542Z,1340
2016-08-13T10:12:08.836Z,1330
2016-08-13T10:13:08.812Z,1305
2016-08-13T10:14:08.804Z,1080
2016-08-13T10:15:08.797Z,1035
2016-08-13T10:16:08.774Z,985
2016-08-13T10:17:08.768Z,955
2016-08-13T10:18:08.762Z,975
2016-08-13T10:19:08.741Z,1385
2016-08-13T10:20:08.731Z,1335
2016-08-13T10:21:08.729Z,1270
2016-08-13T10:22:08.704Z,1255
2016-08-13T10:23:08.698Z,1165
2016-08-13T10:24:08.682Z,1155
2016-08-13T10:25:09.362Z,1130
2016-08-13T10:26:08.659Z,1165
2016-08-13T10:27:08.650Z,1270
2016-08-13T10:28:08.629Z,1410
2016-08-13T10:29:08.620Z,1460
2016-08-13T10:30:08.611Z,1405
2016-08-13T10:31:08.595Z,1445
2016-08-13T10:32:08.593Z,1395
2016-08-13T10:33:08.569Z,1425
2016-08-13T10:34:09.260Z,1450
2016-08-13T10:35:08.547Z,1620
2016-08-13T10:36:08.533Z,1620
2016-08-13T10:37:08.524Z,1420
2016-08-13T10:38:08.520Z,1400
2016-08-13T10:39:08.500Z,1490
2016-08-13T10:40:08.492Z,1620
2016-08-13T10:41:09.629Z,1655
2016-08-13T10:42:08.469Z,1750
2016-08-13T10:43:08.452Z,1595
2016-08-13T10:44:08.443Z,1630
2016-08-13T10:45:08.429Z,1400
2016-08-13T10:46:08.418Z,1320
2016-08-13T10:47:09.099Z,1325
2016-08-13T10:48:08.395Z,1380
2016-08-13T10:49:08.380Z,1280
2016-08-13T10:50:08.373Z,1340
2016-08-13T10:51:08.363Z,1250
2016-08-13T10:52:08.351Z,1165
2016-08-13T10:53:08.338Z,1100
2016-08-13T10:54:08.336Z,1055
2016-08-13T10:55:08.320Z,1200
2016-08-13T10:56:08.328Z,1000
2016-08-13T10:57:08.310Z,1005
2016-08-13T10:58:08.295Z,1165
2016-08-13T10:59:08.280Z,1260
2016-08-13T11:00:08.270Z,1295
2016-08-13T11:01:08.942Z,1230
2016-08-13T11:02:08.236Z,1085
2016-08-13T11:03:08.223Z,1040
2016-08-13T11:04:08.231Z,1170
2016-08-13T11:05:08.212Z,1165
2016-08-13T11:06:08.188Z,1150
2016-08-13T11:07:08.175Z,1075
2016-08-13T11:08:08.161Z,1065
2016-08-13T11:09:08.151Z,1070
2016-08-13T11:10:08.148Z,1020
2016-08-13T11:11:08.140Z,965
2016-08-13T11:12:08.122Z,925
2016-08-13T11:13:08.108Z,935
2016-08-13T11:14:08.095Z,960
2016-08-13T11:15:08.077Z,940
2016-08-13T11:16:08.075Z,945
2016-08-13T11:17:08.051Z,985
2016-08-13T11:18:08.038Z,1045
2016-08-13T11:19:08.035Z,1090
2016-08-13T11:20:08.014Z,1140
2016-08-13T11:21:08.002Z,1145
2016-08-13T11:22:08.695Z,1225
2016-08-13T11:23:07.973Z,1285
2016-08-13T11:24:07.965Z,1440
2016-08-13T11:25:07.953Z,1480
2016-08-13T11:26:08.629Z,1475
2016-08-13T11:27:09.375Z,1445
2016-08-13T11:28:07.915Z,1375
2016-08-13T11:29:07.906Z,1210
2016-08-13T11:30:07.892Z,1280
2016-08-13T11:31:07.890Z,1175
2016-08-13T11:32:07.864Z,1245
2016-08-13T11:33:07.855Z,1370
2016-08-13T11:34:08.006Z,1165
2016-08-13T11:35:07.833Z,1080
2016-08-13T11:36:07.821Z,1095
2016-08-13T11:37:07.810Z,1025
2016-08-13T11:38:07.796Z,940
2016-08-13T11:39:07.781Z,980
2016-08-13T11:40:07.769Z,1140
2016-08-13T11:41:07.768Z,1165
2016-08-13T11:42:07.750Z,1275
2016-08-13T11:43:07.735Z,1175
2016-08-13T11:44:07.728Z,1035
2016-08-13T11:45:07.709Z,1220
2016-08-13T11:46:07.699Z,1255
2016-08-13T11:47:07.688Z,1205
2016-08-13T11:48:07.678Z,1270
2016-08-13T11:49:10.005Z,1320
2016-08-13T11:50:07.653Z,1330
2016-08-13T11:51:07.656Z,1420
2016-08-13T11:52:07.627Z,1500
2016-08-13T11:53:07.612Z,1615
2016-08-13T11:54:07.600Z,1620
2016-08-13T11:55:07.588Z,1565
2016-08-13T11:56:07.579Z,1340
2016-08-13T11:57:07.565Z,1375
2016-08-13T11:58:07.550Z,1320
2016-08-13T11:59:07.543Z,1505
2016-08-13T12:00:07.544Z,1575
2016-08-13T12:01:08.972Z,1520
2016-08-13T12:02:07.505Z,1155
2016-08-13T12:03:07.491Z,1085
2016-08-13T12:04:07.486Z,1250
2016-08-13T12:05:07.472Z,1300
2016-08-13T12:06:07.468Z,1200
2016-08-13T12:07:07.448Z,1130
2016-08-13T12:08:07.432Z,1150
2016-08-13T12:09:07.425Z,1210
2016-08-13T12:10:07.417Z,1400
2016-08-13T12:11:07.492Z,1400
2016-08-13T12:12:07.395Z,1425
2016-08-13T12:13:07.442Z,1355
2016-08-13T12:14:07.377Z,1405
2016-08-13T12:15:07.352Z,1525
2016-08-13T12:16:07.340Z,1515
2016-08-13T12:17:07.330Z,1475
2016-08-13T12:18:07.315Z,1525
2016-08-13T12:19:07.319Z,1475
2016-08-13T12:20:07.302Z,1315
2016-08-13T12:21:07.285Z,1175
2016-08-13T12:22:07.291Z,1030
2016-08-13T12:23:07.259Z,965
2016-08-13T12:24:07.261Z,945
2016-08-13T12:25:08.103Z,980
2016-08-13T12:26:07.373Z,990
2016-08-13T12:27:07.404Z,1020
2016-08-13T12:28:07.324Z,1065
2016-08-13T12:29:07.888Z,1155
2016-08-13T12:30:07.875Z,1190
2016-08-13T12:31:08.157Z,1045
2016-08-13T12:32:07.255Z,1210
2016-08-13T12:33:07.142Z,1210
2016-08-13T12:34:07.902Z,1220
2016-08-13T12:35:07.194Z,1165
2016-08-13T12:36:07.531Z,1210
2016-08-13T12:37:07.098Z,1465
2016-08-13T12:38:07.273Z,1540
2016-08-13T12:39:07.271Z,1495
2016-08-13T12:40:07.043Z,1390
2016-08-13T12:41:07.035Z,1160
2016-08-13T12:42:07.026Z,1480
2016-08-13T12:43:07.013Z,1390
2016-08-13T12:44:06.999Z,1295
2016-08-13T12:45:07.004Z,1255
2016-08-13T12:46:07.668Z,1290
2016-08-13T12:47:07.012Z,1295
2016-08-13T12:48:07.056Z,1325
2016-08-13T12:49:07.041Z,1330
2016-08-13T12:50:07.033Z,1300
2016-08-13T12:51:06.908Z,1275
2016-08-13T12:52:08.759Z,1245
2016-08-13T12:53:06.884Z,1335
2016-08-13T12:54:06.870Z,1380
2016-08-13T12:55:06.859Z,1310
2016-08-13T12:56:06.847Z,1275
2016-08-13T12:57:06.832Z,1275
2016-08-13T12:58:06.823Z,1230
2016-08-13T12:59:06.814Z,1145
2016-08-13T13:00:06.798Z,1115
2016-08-13T13:01:06.789Z,1110
2016-08-13T13:02:07.467Z,1125
2016-08-13T13:03:06.759Z,1175
2016-08-13T13:04:06.746Z,1310
2016-08-13T13:05:07.429Z,1375
2016-08-13T13:06:06.723Z,1410
2016-08-13T13:07:06.709Z,1255
2016-08-13T13:08:06.698Z,1100
2016-08-13T13:09:06.685Z,1020
2016-08-13T13:10:06.671Z,1060
2016-08-13T13:11:06.658Z,1055
2016-08-13T13:12:06.648Z,1060
2016-08-13T13:13:06.629Z,1140
2016-08-13T13:14:06.657Z,1080
2016-08-13T13:15:06.724Z,955
2016-08-13T13:16:06.594Z,940
2016-08-13T13:17:06.584Z,970
2016-08-13T13:18:06.570Z,1015
2016-08-13T13:19:06.554Z,1035
2016-08-13T13:20:06.545Z,1025
2016-08-13T13:21:06.565Z,955
2016-08-13T13:22:06.621Z,805
2016-08-13T13:23:06.503Z,870
2016-08-13T13:24:06.493Z,895
2016-08-13T13:25:06.478Z,885
2016-08-13T13:26:06.474Z,915
2016-08-13T13:27:06.451Z,880
2016-08-13T13:28:06.438Z,860
2016-08-13T13:29:06.427Z,855
2016-08-13T13:30:07.113Z,845
2016-08-13T13:31:06.397Z,855
2016-08-13T13:32:06.382Z,895
2016-08-13T13:33:06.540Z,885
2016-08-13T13:34:06.469Z,855
2016-08-13T13:35:06.345Z,835
2016-08-13T13:36:06.339Z,820
2016-08-13T13:37:06.314Z,815
2016-08-13T13:38:06.518Z,850
2016-08-13T13:39:06.287Z,855
2016-08-13T13:40:06.274Z,865
2016-08-13T13:41:06.259Z,885
2016-08-13T13:42:06.242Z,915
2016-08-13T13:43:06.348Z,965
2016-08-13T13:44:06.217Z,1020
2016-08-13T13:45:06.302Z,1105
2016-08-13T13:46:06.247Z,1185
2016-08-13T13:47:06.173Z,1290
2016-08-13T13:48:06.163Z,1220
2016-08-13T13:49:06.150Z,1140
2016-08-13T13:50:06.135Z,1035
2016-08-13T13:51:06.121Z,955